Time,TemperatureF,DewpointF,PressureIn,WindDirection,WindDirectionDegrees,WindSpeedMPH,WindSpeedGustMPH,Humidity,HourlyPrecipIn,Conditions,Clouds,dailyrainin,SoftwareType,DateUTC
2013-06-01 00:05:00,64.5,64.5,29.97,WSW,256,7.0,7.0,100,0.00,,,0.00,Wunderground v.1.15,2013-06-01 04:05:00,
2013-06-01 00:10:00,64.3,64.3,29.97,West,268,7.0,7.0,100,0.00,,,0.00,Wunderground v.1.15,2013-06-01 04:10:00,
2013-06-01 00:15:00,64.3,64.3,29.97,WNW,294,7.0,8.0,100,0.00,,,0.00,Wunderground v.1.15,2013-06-01 04:15:00,
2013-06-01 00:20:00,64.3,64.3,29.97,West,260,7.0,7.0,100,0.00,,,0.00,Wunderground v.1.15,2013-06-01 04:20:00,
2013-06-01 00:25:00,64.2,64.2,29.97,West,280,6.0,12.0,100,0.00,,,0.00,Wunderground v.1.15,2013-06-01 04:25:00,
2013-06-01 00:30:00,64.0,64.0,29.97,West,267,6.0,6.0,100,0.00,,,0.00,Wunderground v.1.15,2013-06-01 04:30:00,
2013-06-01 00:40:00,63.9,63.9,29.97,West,270,6.0,6.0,100,0.00,,,0.00,Wunderground v.1.15,2013-06-01 04:40:00,
2013-06-01 00:50:00,63.5,63.5,29.97,WSW,249,6.0,6.0,100,0.00,,,0.00,Wunderground v.1.15,2013-06-01 04:50:00,
2013-06-01 00:55:00,63.2,63.2,29.97,WSW,253,6.0,6.0,100,0.00,,,0.00,Wunderground v.1.15,2013-06-01 04:55:00,
2013-06-01 01:05:00,62.9,62.9,29.97,West,260,6.0,6.0,100,0.00,,,0.00,Wunderground v.1.15,2013-06-01 05:05:00,
2013-06-01 01:10:00,62.7,62.7,29.97,West,266,7.0,7.0,100,0.00,,,0.00,Wunderground v.1.15,2013-06-01 05:10:00,
2013-06-01 01:20:00,62.7,62.7,29.97,WSW,254,7.0,9.0,100,0.00,,,0.00,Wunderground v.1.15,2013-06-01 05:20:00,
2013-06-01 01:25:00,62.7,62.7,29.97,WSW,251,7.0,9.0,100,0.00,,,0.00,Wunderground v.1.15,2013-06-01 05:25:00,
2013-06-01 01:35:00,62.6,62.6,29.97,West,264,7.0,7.0,100,0.00,,,0.00,Wunderground v.1.15,2013-06-01 05:35:00,
2013-06-01 01:40:00,62.6,62.6,29.97,WSW,256,7.0,7.0,100,0.00,,,0.00,Wunderground v.1.15,2013-06-01 05:40:00,
2013-06-01 01:50:00,62.4,62.4,29.96,West,261,7.0,11.0,100,0.00,,,0.00,Wunderground v.1.15,2013-06-01 05:50:00,
2013-06-01 01:55:00,62.3,62.3,29.96,West,273,7.0,11.0,100,0.00,,,0.00,Wunderground v.1.15,2013-06-01 05:55:00,
2013-06-01 02:05:00,62.1,62.1,29.96,WSW,247,9.0,9.0,100,0.00,,,0.00,Wunderground v.1.15,2013-06-01 06:05:00,
2013-06-01 02:10:00,62.0,62.0,29.96,WSW,253,8.0,8.0,100,0.00,,,0.00,Wunderground v.1.15,2013-06-01 06:10:00,
2013-06-01 02:20:00,61.8,61.8,29.96,West,267,7.0,11.0,100,0.00,,,0.00,Wunderground v.1.15,2013-06-01 06:20:00,
2013-06-01 02:25:00,61.8,61.8,29.96,West,268,8.0,11.0,100,0.00,,,0.00,Wunderground v.1.15,2013-06-01 06:25:00,
2013-06-01 02:35:00,61.8,61.8,29.95,WSW,254,7.0,8.0,100,0.00,,,0.00,Wunderground v.1.15,2013-06-01 06:35:00,
2013-06-01 02:40:00,61.8,61.8,29.95,West,267,7.0,12.0,100,0.00,,,0.00,Wunderground v.1.15,2013-06-01 06:40:00,
2013-06-01 02:50:00,61.8,61.8,29.95,WNW,285,9.0,9.0,100,0.00,,,0.00,Wunderground v.1.15,2013-06-01 06:50:00,
2013-06-01 02:55:00,61.6,61.6,29.95,West,275,8.0,9.0,100,0.00,,,0.00,Wunderground v.1.15,2013-06-01 06:55:00,
2013-06-01 03:05:00,61.6,61.6,29.95,WSW,257,7.0,10.0,100,0.00,,,0.00,Wunderground v.1.15,2013-06-01 07:05:00,
2013-06-01 03:10:00,61.5,61.5,29.95,WSW,249,7.0,7.0,100,0.00,,,0.00,Wunderground v.1.15,2013-06-01 07:10:00,
2013-06-01 03:20:00,61.5,61.5,29.95,WSW,240,7.0,10.0,100,0.00,,,0.00,Wunderground v.1.15,2013-06-01 07:20:00,
2013-06-01 03:25:00,61.5,61.5,29.95,West,264,7.0,10.0,100,0.00,,,0.00,Wunderground v.1.15,2013-06-01 07:25:00,
2013-06-01 03:35:00,61.5,61.5,29.95,West,281,7.0,8.0,100,0.00,,,0.00,Wunderground v.1.15,2013-06-01 07:35:00,
2013-06-01 03:40:00,61.5,61.5,29.95,West,268,8.0,10.0,100,0.00,,,0.00,Wunderground v.1.15,2013-06-01 07:40:00,
2013-06-01 03:50:00,61.5,61.5,29.95,West,277,7.0,7.0,100,0.00,,,0.00,Wunderground v.1.15,2013-06-01 07:50:00,
2013-06-01 03:55:00,61.3,61.3,29.95,WNW,297,6.0,9.0,100,0.00,,,0.00,Wunderground v.1.15,2013-06-01 07:55:00,
2013-06-01 04:05:00,61.3,61.3,29.95,WSW,254,6.0,8.0,100,0.00,,,0.00,Wunderground v.1.15,2013-06-01 08:05:00,
2013-06-01 04:10:00,61.3,61.3,29.95,West,271,7.0,7.0,100,0.00,,,0.00,Wunderground v.1.15,2013-06-01 08:10:00,
2013-06-01 04:20:00,61.3,61.3,29.95,West,266,7.0,10.0,100,0.00,,,0.00,Wunderground v.1.15,2013-06-01 08:20:00,
2013-06-01 04:25:00,61.3,61.3,29.95,West,281,8.0,10.0,100,0.00,,,0.00,Wunderground v.1.15,2013-06-01 08:25:00,
2013-06-01 04:35:00,61.3,61.3,29.95,WSW,258,7.0,8.0,100,0.00,,,0.00,Wunderground v.1.15,2013-06-01 08:35:00,
2013-06-01 04:40:00,61.3,61.3,29.95,West,268,7.0,8.0,100,0.00,,,0.00,Wunderground v.1.15,2013-06-01 08:40:00,
2013-06-01 04:50:00,61.3,61.3,29.95,West,261,7.0,9.0,100,0.00,,,0.00,Wunderground v.1.15,2013-06-01 08:50:00,
2013-06-01 04:55:00,61.2,61.2,29.95,WSW,251,7.0,9.0,100,0.00,,,0.00,Wunderground v.1.15,2013-06-01 08:55:00,
2013-06-01 05:05:00,61.2,61.2,29.95,WNW,282,7.0,7.0,100,0.00,,,0.00,Wunderground v.1.15,2013-06-01 09:05:00,
2013-06-01 05:10:00,61.2,61.2,29.95,West,275,7.0,7.0,100,0.00,,,0.00,Wunderground v.1.15,2013-06-01 09:10:00,
2013-06-01 05:20:00,61.2,61.2,29.96,West,271,6.0,6.0,100,0.00,,,0.00,Wunderground v.1.15,2013-06-01 09:20:00,
2013-06-01 05:25:00,61.2,61.2,29.96,West,268,6.0,8.0,100,0.00,,,0.00,Wunderground v.1.15,2013-06-01 09:25:00,
2013-06-01 05:35:00,61.3,61.3,29.96,West,266,7.0,10.0,100,0.00,,,0.00,Wunderground v.1.15,2013-06-01 09:35:00,
2013-06-01 05:40:00,61.3,61.3,29.96,WSW,257,6.0,8.0,100,0.00,,,0.00,Wunderground v.1.15,2013-06-01 09:40:00,
2013-06-01 05:50:00,61.6,61.6,29.95,West,268,6.0,6.0,100,0.00,,,0.00,Wunderground v.1.15,2013-06-01 09:50:00,
2013-06-01 05:55:00,61.8,61.8,29.95,WSW,257,7.0,7.0,100,0.00,,,0.00,Wunderground v.1.15,2013-06-01 09:55:00,
2013-06-01 06:05:00,62.1,62.1,29.96,WSW,244,6.0,7.0,100,0.00,,,0.00,Wunderground v.1.15,2013-06-01 10:05:00,
2013-06-01 06:10:00,62.3,62.3,29.96,WSW,251,6.0,6.0,100,0.00,,,0.00,Wunderground v.1.15,2013-06-01 10:10:00,
2013-06-01 06:20:00,62.6,62.6,29.96,West,273,7.0,7.0,100,0.00,,,0.00,Wunderground v.1.15,2013-06-01 10:20:00,
2013-06-01 06:25:00,62.6,62.6,29.96,WSW,258,7.0,9.0,100,0.00,,,0.00,Wunderground v.1.15,2013-06-01 10:25:00,
2013-06-01 06:35:00,62.9,62.9,29.97,West,278,7.0,8.0,100,0.00,,,0.00,Wunderground v.1.15,2013-06-01 10:35:00,
2013-06-01 06:40:00,63.1,63.1,29.97,WSW,240,7.0,7.0,100,0.00,,,0.00,Wunderground v.1.15,2013-06-01 10:40:00,
2013-06-01 06:50:00,63.4,63.4,29.97,SW,234,7.0,7.0,100,0.00,,,0.00,Wunderground v.1.15,2013-06-01 10:50:00,
2013-06-01 06:55:00,63.5,63.5,29.97,WSW,257,7.0,7.0,100,0.00,,,0.00,Wunderground v.1.15,2013-06-01 10:55:00,
2013-06-01 07:05:00,64.2,64.2,29.97,WSW,251,7.0,8.0,100,0.00,,,0.00,Wunderground v.1.15,2013-06-01 11:05:00,
2013-06-01 07:10:00,64.3,64.3,29.97,West,270,6.0,8.0,100,0.00,,,0.00,Wunderground v.1.15,2013-06-01 11:10:00,
2013-06-01 07:20:00,64.5,64.5,29.97,WSW,251,7.0,7.0,100,0.00,,,0.00,Wunderground v.1.15,2013-06-01 11:20:00,
2013-06-01 07:25:00,64.7,64.7,29.97,WSW,251,7.0,7.0,100,0.00,,,0.00,Wunderground v.1.15,2013-06-01 11:25:00,
2013-06-01 07:35:00,65.2,65.2,29.97,WNW,291,7.0,8.0,100,0.00,,,0.00,Wunderground v.1.15,2013-06-01 11:35:00,
2013-06-01 07:40:00,65.2,65.2,29.97,WSW,253,7.0,7.0,100,0.00,,,0.00,Wunderground v.1.15,2013-06-01 11:40:00,
2013-06-01 07:50:00,65.6,65.6,29.96,West,275,7.0,7.0,100,0.00,,,0.00,Wunderground v.1.15,2013-06-01 11:50:00,
2013-06-01 07:55:00,65.6,65.6,29.96,West,266,7.0,7.0,100,0.00,,,0.00,Wunderground v.1.15,2013-06-01 11:55:00,
2013-06-01 08:05:00,66.1,66.1,29.97,West,277,7.0,13.0,100,0.00,,,0.00,Wunderground v.1.15,2013-06-01 12:05:00,
2013-06-01 08:10:00,66.3,66.3,29.97,West,266,8.0,12.0,100,0.00,,,0.00,Wunderground v.1.15,2013-06-01 12:10:00,
2013-06-01 08:20:00,66.0,66.0,29.97,WSW,249,10.0,11.0,100,0.00,,,0.00,Wunderground v.1.15,2013-06-01 12:20:00,
2013-06-01 08:25:00,66.1,66.1,29.97,South,182,8.0,11.0,100,-99.99,,,0.35,Wunderground v.1.15,2013-06-01 12:25:00,
2013-06-01 08:35:00,66.1,66.1,29.97,South,182,8.0,8.0,100,0.06,,,0.35,Wunderground v.1.15,2013-06-01 12:35:00,
2013-06-01 08:40:00,66.4,66.4,29.97,WNW,288,8.0,8.0,100,1.50,,,0.40,Wunderground v.1.15,2013-06-01 12:40:00,
2013-06-01 08:50:00,66.8,66.8,29.98,West,277,9.0,9.0,100,0.00,,,0.00,Wunderground v.1.15,2013-06-01 12:50:00,
2013-06-01 08:55:00,66.8,66.8,29.98,WSW,256,9.0,9.0,100,0.08,,,0.01,Wunderground v.1.15,2013-06-01 12:55:00,
2013-06-01 09:05:00,67.3,67.3,29.98,WSW,239,7.0,12.0,100,0.04,,,0.01,Wunderground v.1.15,2013-06-01 13:05:00,
2013-06-01 09:10:00,67.3,67.3,29.98,WSW,250,7.0,7.0,100,0.00,,,0.01,Wunderground v.1.15,2013-06-01 13:10:00,
2013-06-01 09:20:00,66.8,66.8,29.98,WNW,295,8.0,8.0,100,0.00,,,0.01,Wunderground v.1.15,2013-06-01 13:20:00,
2013-06-01 09:25:00,66.6,66.6,29.98,WNW,282,10.0,10.0,100,0.00,,,0.01,Wunderground v.1.15,2013-06-01 13:25:00,
2013-06-01 09:35:00,67.1,67.1,29.98,West,263,9.0,10.0,100,0.00,,,0.01,Wunderground v.1.15,2013-06-01 13:35:00,
2013-06-01 09:40:00,67.4,67.4,29.98,SW,236,7.0,7.0,100,0.00,,,0.01,Wunderground v.1.15,2013-06-01 13:40:00,
2013-06-01 09:50:00,67.1,67.1,29.98,West,261,8.0,8.0,100,0.00,,,0.01,Wunderground v.1.15,2013-06-01 13:50:00,
2013-06-01 09:55:00,67.1,67.1,29.98,West,275,10.0,10.0,100,0.00,,,0.01,Wunderground v.1.15,2013-06-01 13:55:00,
2013-06-01 10:05:00,67.4,67.4,29.97,WSW,244,10.0,12.0,100,0.00,,,0.01,Wunderground v.1.15,2013-06-01 14:05:00,
2013-06-01 10:10:00,67.9,67.9,29.97,West,280,8.0,8.0,100,0.00,,,0.01,Wunderground v.1.15,2013-06-01 14:10:00,
2013-06-01 10:20:00,67.6,67.6,29.97,SW,234,10.0,10.0,100,0.00,,,0.01,Wunderground v.1.15,2013-06-01 14:20:00,
2013-06-01 10:25:00,67.6,67.6,29.97,WSW,250,10.0,10.0,100,0.00,,,0.01,Wunderground v.1.15,2013-06-01 14:25:00,
2013-06-01 10:35:00,67.8,67.8,29.98,West,261,9.0,12.0,100,0.00,,,0.01,Wunderground v.1.15,2013-06-01 14:35:00,
2013-06-01 10:45:00,67.8,67.8,29.98,West,275,10.0,11.0,100,0.00,,,0.01,Wunderground v.1.15,2013-06-01 14:45:00,
2013-06-01 10:55:00,68.1,68.1,29.98,WSW,247,7.0,8.0,100,0.00,,,0.01,Wunderground v.1.15,2013-06-01 14:55:00,
2013-06-01 11:05:00,68.1,68.1,29.98,WSW,249,9.0,13.0,100,0.00,,,0.01,Wunderground v.1.15,2013-06-01 15:05:00,
2013-06-01 11:10:00,68.6,68.6,29.98,WSW,247,10.0,13.0,100,0.00,,,0.01,Wunderground v.1.15,2013-06-01 15:10:00,
2013-06-01 11:20:00,68.8,68.8,29.98,WNW,294,9.0,9.0,100,0.00,,,0.01,Wunderground v.1.15,2013-06-01 15:20:00,
2013-06-01 11:25:00,68.8,68.8,29.98,West,277,9.0,10.0,100,0.00,,,0.01,Wunderground v.1.15,2013-06-01 15:25:00,
2013-06-01 11:35:00,69.1,69.1,29.98,West,261,9.0,11.0,100,0.00,,,0.01,Wunderground v.1.15,2013-06-01 15:35:00,
2013-06-01 11:40:00,69.8,69.8,29.98,West,273,8.0,9.0,100,0.00,,,0.01,Wunderground v.1.15,2013-06-01 15:40:00,
2013-06-01 11:50:00,70.1,70.1,29.98,WSW,258,8.0,8.0,100,0.00,,,0.01,Wunderground v.1.15,2013-06-01 15:50:00,
2013-06-01 11:55:00,70.4,70.4,29.98,West,266,8.0,11.0,100,0.00,,,0.01,Wunderground v.1.15,2013-06-01 15:55:00,
2013-06-01 12:05:00,69.8,69.8,29.97,West,273,9.0,13.0,100,0.00,,,0.01,Wunderground v.1.15,2013-06-01 16:05:00,
2013-06-01 12:10:00,69.1,69.1,29.97,WSW,242,9.0,11.0,100,0.00,,,0.01,Wunderground v.1.15,2013-06-01 16:10:00,
2013-06-01 12:20:00,69.1,69.1,29.97,SW,216,9.0,9.0,100,0.00,,,0.01,Wunderground v.1.15,2013-06-01 16:20:00,
2013-06-01 12:25:00,69.4,69.4,29.97,WSW,250,8.0,9.0,100,0.00,,,0.01,Wunderground v.1.15,2013-06-01 16:25:00,
2013-06-01 12:35:00,68.9,68.9,29.97,West,266,9.0,14.0,100,0.00,,,0.01,Wunderground v.1.15,2013-06-01 16:35:00,
2013-06-01 12:40:00,69.1,69.1,29.97,WNW,285,9.0,9.0,100,0.00,,,0.01,Wunderground v.1.15,2013-06-01 16:40:00,
2013-06-01 12:50:00,68.9,68.9,29.97,West,263,8.0,8.0,100,0.00,,,0.01,Wunderground v.1.15,2013-06-01 16:50:00,
2013-06-01 12:55:00,69.1,69.1,29.97,West,263,7.0,8.0,100,0.00,,,0.01,Wunderground v.1.15,2013-06-01 16:55:00,
2013-06-01 13:05:00,68.9,68.9,29.97,West,270,9.0,10.0,100,0.00,,,0.01,Wunderground v.1.15,2013-06-01 17:05:00,
2013-06-01 13:10:00,69.1,69.1,29.97,West,266,9.0,9.0,100,0.00,,,0.01,Wunderground v.1.15,2013-06-01 17:10:00,
2013-06-01 13:20:00,68.6,68.6,29.96,WSW,257,11.0,15.0,100,0.00,,,0.01,Wunderground v.1.15,2013-06-01 17:20:00,
2013-06-01 13:25:00,68.4,68.4,29.96,West,273,12.0,15.0,100,0.00,,,0.01,Wunderground v.1.15,2013-06-01 17:25:00,
2013-06-01 13:35:00,68.3,68.3,29.96,WSW,253,9.0,11.0,100,0.00,,,0.01,Wunderground v.1.15,2013-06-01 17:35:00,
2013-06-01 13:40:00,67.8,67.8,29.96,SW,222,12.0,12.0,100,0.00,,,0.01,Wunderground v.1.15,2013-06-01 17:40:00,
2013-06-01 13:50:00,68.1,68.1,29.96,WNW,282,10.0,13.0,100,0.00,,,0.01,Wunderground v.1.15,2013-06-01 17:50:00,
2013-06-01 13:55:00,67.8,67.8,29.96,WSW,249,12.0,16.0,100,0.00,,,0.01,Wunderground v.1.15,2013-06-01 17:55:00,
2013-06-01 14:05:00,67.9,67.9,29.95,WSW,243,10.0,11.0,100,0.00,,,0.01,Wunderground v.1.15,2013-06-01 18:05:00,
2013-06-01 14:10:00,68.4,68.4,29.95,WSW,237,8.0,12.0,100,0.00,,,0.01,Wunderground v.1.15,2013-06-01 18:10:00,
2013-06-01 14:20:00,67.8,67.8,29.95,WSW,258,12.0,12.0,100,0.00,,,0.01,Wunderground v.1.15,2013-06-01 18:20:00,
2013-06-01 14:25:00,68.1,68.1,29.95,WSW,253,11.0,12.0,100,0.00,,,0.01,Wunderground v.1.15,2013-06-01 18:25:00,
2013-06-01 14:35:00,68.3,68.3,29.94,SW,236,9.0,9.0,100,0.00,,,0.01,Wunderground v.1.15,2013-06-01 18:35:00,
2013-06-01 14:40:00,68.4,68.4,29.94,WSW,249,10.0,10.0,100,0.00,,,0.01,Wunderground v.1.15,2013-06-01 18:40:00,
2013-06-01 14:50:00,67.8,67.8,29.94,West,266,11.0,11.0,100,0.00,,,0.01,Wunderground v.1.15,2013-06-01 18:50:00,
2013-06-01 14:55:00,67.6,67.6,29.94,West,267,10.0,11.0,100,0.00,,,0.01,Wunderground v.1.15,2013-06-01 18:55:00,
2013-06-01 15:05:00,68.1,68.1,29.94,SW,227,9.0,10.0,100,0.00,,,0.01,Wunderground v.1.15,2013-06-01 19:05:00,
2013-06-01 15:10:00,68.3,68.3,29.94,West,267,8.0,11.0,100,0.00,,,0.01,Wunderground v.1.15,2013-06-01 19:10:00,
2013-06-01 15:20:00,68.1,68.1,29.94,WSW,247,10.0,10.0,100,0.00,,,0.01,Wunderground v.1.15,2013-06-01 19:20:00,
2013-06-01 15:25:00,68.1,68.1,29.94,WSW,242,9.0,10.0,100,0.00,,,0.01,Wunderground v.1.15,2013-06-01 19:25:00,
2013-06-01 15:35:00,68.3,68.3,29.94,West,260,8.0,11.0,100,0.00,,,0.01,Wunderground v.1.15,2013-06-01 19:35:00,
2013-06-01 15:40:00,68.1,68.1,29.94,West,271,9.0,14.0,100,0.00,,,0.01,Wunderground v.1.15,2013-06-01 19:40:00,
2013-06-01 15:50:00,67.8,67.8,29.93,WSW,247,9.0,9.0,100,0.00,,,0.01,Wunderground v.1.15,2013-06-01 19:50:00,
2013-06-01 15:55:00,67.8,67.8,29.93,WSW,253,7.0,9.0,100,0.00,,,0.01,Wunderground v.1.15,2013-06-01 19:55:00,
2013-06-01 16:05:00,67.6,67.6,29.93,SW,230,9.0,11.0,100,0.00,,,0.01,Wunderground v.1.15,2013-06-01 20:05:00,
2013-06-01 16:10:00,67.1,67.1,29.93,WNW,291,11.0,11.0,100,0.00,,,0.01,Wunderground v.1.15,2013-06-01 20:10:00,
2013-06-01 16:20:00,67.1,67.1,29.92,SW,218,10.0,10.0,100,0.00,,,0.01,Wunderground v.1.15,2013-06-01 20:20:00,
2013-06-01 16:25:00,67.1,67.1,29.92,West,263,9.0,12.0,100,0.00,,,0.01,Wunderground v.1.15,2013-06-01 20:25:00,
2013-06-01 16:35:00,67.1,67.1,29.92,WNW,301,10.0,10.0,100,0.00,,,0.01,Wunderground v.1.15,2013-06-01 20:35:00,
2013-06-01 16:40:00,67.4,67.4,29.92,West,275,8.0,8.0,100,0.00,,,0.01,Wunderground v.1.15,2013-06-01 20:40:00,
2013-06-01 16:50:00,67.1,67.1,29.93,West,268,10.0,10.0,100,0.00,,,0.01,Wunderground v.1.15,2013-06-01 20:50:00,
2013-06-01 16:55:00,67.1,67.1,29.93,West,260,8.0,10.0,100,0.00,,,0.01,Wunderground v.1.15,2013-06-01 20:55:00,
2013-06-01 17:05:00,66.9,66.9,29.93,West,264,7.0,9.0,100,0.00,,,0.01,Wunderground v.1.15,2013-06-01 21:05:00,
2013-06-01 17:10:00,66.8,66.8,29.93,West,263,7.0,7.0,100,0.00,,,0.01,Wunderground v.1.15,2013-06-01 21:10:00,
2013-06-01 17:20:00,66.6,66.6,29.92,NW,309,7.0,11.0,100,0.00,,,0.01,Wunderground v.1.15,2013-06-01 21:20:00,
2013-06-01 17:25:00,66.3,66.3,29.92,SW,234,9.0,11.0,100,0.00,,,0.01,Wunderground v.1.15,2013-06-01 21:25:00,
2013-06-01 17:35:00,65.5,65.5,29.92,WSW,246,10.0,11.0,100,0.00,,,0.01,Wunderground v.1.15,2013-06-01 21:35:00,
2013-06-01 17:40:00,65.5,65.5,29.92,SW,216,10.0,12.0,100,0.00,,,0.01,Wunderground v.1.15,2013-06-01 21:40:00,
2013-06-01 17:50:00,65.2,65.2,29.92,WSW,257,10.0,10.0,100,0.00,,,0.01,Wunderground v.1.15,2013-06-01 21:50:00,
2013-06-01 17:55:00,65.2,65.2,29.92,West,266,9.0,10.0,100,0.00,,,0.01,Wunderground v.1.15,2013-06-01 21:55:00,
2013-06-01 18:05:00,65.2,65.2,29.92,WSW,258,8.0,13.0,100,0.00,,,0.01,Wunderground v.1.15,2013-06-01 22:05:00,
2013-06-01 18:10:00,65.2,65.2,29.92,West,271,9.0,14.0,100,0.00,,,0.01,Wunderground v.1.15,2013-06-01 22:10:00,
2013-06-01 18:20:00,65.0,65.0,29.92,WSW,240,10.0,10.0,100,0.00,,,0.01,Wunderground v.1.15,2013-06-01 22:20:00,
2013-06-01 18:25:00,65.0,65.0,29.92,West,264,6.0,10.0,100,0.00,,,0.01,Wunderground v.1.15,2013-06-01 22:25:00,
2013-06-01 18:35:00,64.5,64.5,29.92,WSW,242,9.0,10.0,100,0.00,,,0.01,Wunderground v.1.15,2013-06-01 22:35:00,
2013-06-01 18:40:00,64.3,64.3,29.92,WSW,253,10.0,10.0,100,0.00,,,0.01,Wunderground v.1.15,2013-06-01 22:40:00,
2013-06-01 18:50:00,64.2,64.2,29.92,West,270,8.0,11.0,100,0.00,,,0.01,Wunderground v.1.15,2013-06-01 22:50:00,
2013-06-01 18:55:00,64.0,64.0,29.92,SW,226,9.0,11.0,100,0.00,,,0.01,Wunderground v.1.15,2013-06-01 22:55:00,
2013-06-01 19:05:00,63.7,63.7,29.92,SW,236,9.0,13.0,100,0.00,,,0.01,Wunderground v.1.15,2013-06-01 23:05:00,
2013-06-01 19:10:00,63.7,63.7,29.92,West,280,8.0,8.0,100,0.00,,,0.01,Wunderground v.1.15,2013-06-01 23:10:00,
2013-06-01 19:20:00,63.4,63.4,29.92,SW,232,7.0,7.0,100,0.00,,,0.01,Wunderground v.1.15,2013-06-01 23:20:00,
2013-06-01 19:25:00,63.2,63.2,29.92,West,271,8.0,11.0,100,0.00,,,0.01,Wunderground v.1.15,2013-06-01 23:25:00,
2013-06-01 19:35:00,63.2,63.2,29.91,West,277,10.0,11.0,100,0.00,,,0.01,Wunderground v.1.15,2013-06-01 23:35:00,
2013-06-01 19:40:00,63.1,63.1,29.91,WNW,287,9.0,13.0,100,0.00,,,0.01,Wunderground v.1.15,2013-06-01 23:40:00,
2013-06-01 19:50:00,62.9,62.9,29.92,WSW,257,8.0,12.0,100,0.00,,,0.01,Wunderground v.1.15,2013-06-01 23:50:00,
2013-06-01 19:55:00,62.9,62.9,29.92,West,274,9.0,12.0,100,0.00,,,0.01,Wunderground v.1.15,2013-06-01 23:55:00,
2013-06-01 20:05:00,62.9,62.9,29.92,SW,236,10.0,10.0,100,0.00,,,0.01,Wunderground v.1.15,2013-06-02 00:05:00,
2013-06-01 20:10:00,62.9,62.9,29.92,West,267,9.0,10.0,100,0.00,,,0.01,Wunderground v.1.15,2013-06-02 00:10:00,
2013-06-01 20:20:00,62.9,62.9,29.92,WNW,299,10.0,10.0,100,0.00,,,0.01,Wunderground v.1.15,2013-06-02 00:20:00,
2013-06-01 20:25:00,62.9,62.9,29.92,SW,232,10.0,10.0,100,0.00,,,0.01,Wunderground v.1.15,2013-06-02 00:25:00,
2013-06-01 20:35:00,62.7,62.7,29.92,WSW,253,9.0,12.0,100,0.00,,,0.01,Wunderground v.1.15,2013-06-02 00:35:00,
2013-06-01 20:40:00,62.7,62.7,29.92,WSW,258,9.0,12.0,100,0.00,,,0.01,Wunderground v.1.15,2013-06-02 00:40:00,
2013-06-01 20:50:00,62.6,62.6,29.92,WSW,237,9.0,9.0,100,0.00,,,0.01,Wunderground v.1.15,2013-06-02 00:50:00,
2013-06-01 20:55:00,62.6,62.6,29.92,West,263,9.0,9.0,100,0.00,,,0.01,Wunderground v.1.15,2013-06-02 00:55:00,
2013-06-01 21:05:00,62.6,62.6,29.93,WSW,244,10.0,10.0,100,0.00,,,0.01,Wunderground v.1.15,2013-06-02 01:05:00,
2013-06-01 21:10:00,62.7,62.7,29.93,West,261,10.0,11.0,100,0.00,,,0.01,Wunderground v.1.15,2013-06-02 01:10:00,
2013-06-01 21:20:00,62.7,62.7,29.93,WSW,257,10.0,10.0,100,0.00,,,0.01,Wunderground v.1.15,2013-06-02 01:20:00,
2013-06-01 21:25:00,62.7,62.7,29.93,West,278,10.0,11.0,100,0.00,,,0.01,Wunderground v.1.15,2013-06-02 01:25:00,
2013-06-01 21:35:00,62.9,62.9,29.93,WNW,284,10.0,10.0,100,0.00,,,0.01,Wunderground v.1.15,2013-06-02 01:35:00,
2013-06-01 21:40:00,62.9,62.9,29.93,WNW,298,9.0,11.0,100,0.00,,,0.01,Wunderground v.1.15,2013-06-02 01:40:00,
2013-06-01 21:50:00,62.7,62.7,29.94,WNW,282,9.0,9.0,100,0.00,,,0.01,Wunderground v.1.15,2013-06-02 01:50:00,
2013-06-01 21:55:00,62.7,62.7,29.94,West,266,9.0,17.0,100,0.00,,,0.01,Wunderground v.1.15,2013-06-02 01:55:00,
2013-06-01 22:05:00,62.7,62.7,29.94,West,261,8.0,12.0,100,0.00,,,0.01,Wunderground v.1.15,2013-06-02 02:05:00,
2013-06-01 22:10:00,62.7,62.7,29.94,WSW,246,8.0,8.0,100,0.00,,,0.01,Wunderground v.1.15,2013-06-02 02:10:00,
2013-06-01 22:20:00,62.6,62.6,29.93,West,260,8.0,11.0,100,0.00,,,0.01,Wunderground v.1.15,2013-06-02 02:20:00,
2013-06-01 22:25:00,62.4,62.4,29.93,West,278,7.0,11.0,100,0.00,,,0.01,Wunderground v.1.15,2013-06-02 02:25:00,
2013-06-01 22:35:00,62.4,62.4,29.93,WSW,240,8.0,10.0,100,0.00,,,0.01,Wunderground v.1.15,2013-06-02 02:35:00,
2013-06-01 22:40:00,62.4,62.4,29.93,West,268,9.0,9.0,100,0.00,,,0.01,Wunderground v.1.15,2013-06-02 02:40:00,
2013-06-01 22:50:00,62.4,62.4,29.93,SW,229,9.0,9.0,100,0.00,,,0.01,Wunderground v.1.15,2013-06-02 02:50:00,
2013-06-01 22:55:00,62.6,62.6,29.93,West,266,10.0,10.0,100,0.00,,,0.01,Wunderground v.1.15,2013-06-02 02:55:00,
2013-06-01 23:05:00,62.6,62.6,29.92,West,274,8.0,12.0,100,0.00,,,0.01,Wunderground v.1.15,2013-06-02 03:05:00,
2013-06-01 23:10:00,62.7,62.7,29.92,West,267,9.0,9.0,100,0.00,,,0.01,Wunderground v.1.15,2013-06-02 03:10:00,
2013-06-01 23:20:00,62.7,62.7,29.93,West,264,8.0,11.0,100,0.00,,,0.01,Wunderground v.1.15,2013-06-02 03:20:00,
2013-06-01 23:25:00,62.9,62.9,29.93,West,266,8.0,11.0,100,0.00,,,0.01,Wunderground v.1.15,2013-06-02 03:25:00,
2013-06-01 23:35:00,63.2,63.2,29.93,WNW,282,11.0,12.0,100,0.00,,,0.01,Wunderground v.1.15,2013-06-02 03:35:00,
2013-06-01 23:40:00,63.2,63.2,29.93,WSW,243,10.0,16.0,100,0.00,,,0.01,Wunderground v.1.15,2013-06-02 03:40:00,
2013-06-01 23:50:00,63.4,63.4,29.93,West,273,10.0,13.0,100,0.00,,,0.01,Wunderground v.1.15,2013-06-02 03:50:00,
2013-06-01 23:55:00,63.2,63.2,29.93,WSW,256,10.0,14.0,100,0.00,,,0.01,Wunderground v.1.15,2013-06-02 03:55:00,